sensor_id;sensor_type;location;lat;lon;timestamp;temperature;humidity
1379;DHT22;683;48.738;9.226;2022-08-20T00:01:06;19.60;99.90
1379;DHT22;683;48.738;9.226;2022-08-20T00:03:36;19.50;99.90
1379;DHT22;683;48.738;9.226;2022-08-20T00:06:08;19.40;99.90
1379;DHT22;683;48.738;9.226;2022-08-20T00:08:37;19.30;99.90
1379;DHT22;683;48.738;9.226;2022-08-20T00:11:07;19.30;99.90
1379;DHT22;683;48.738;9.226;2022-08-20T00:13:38;19.30;99.90
1379;DHT22;683;48.738;9.226;2022-08-20T00:16:08;19.20;99.90
1379;DHT22;683;48.738;9.226;2022-08-20T00:18:37;19.10;99.90
1379;DHT22;683;48.738;9.226;2022-08-20T00:21:10;19.10;99.90
1379;DHT22;683;48.738;9.226;2022-08-20T00:23:39;19.00;99.90
1379;DHT22;683;48.738;9.226;2022-08-20T00:26:08;19.00;99.90
1379;DHT22;683;48.738;9.226;2022-08-20T00:28:36;18.90;99.90
1379;DHT22;683;48.738;9.226;2022-08-20T00:31:06;18.80;99.90
1379;DHT22;683;48.738;9.226;2022-08-20T00:33:35;18.70;99.90
1379;DHT22;683;48.738;9.226;2022-08-20T00:36:06;18.70;99.90
1379;DHT22;683;48.738;9.226;2022-08-20T00:38:36;18.70;99.90
1379;DHT22;683;48.738;9.226;2022-08-20T00:41:04;18.80;99.90
1379;DHT22;683;48.738;9.226;2022-08-20T00:43:35;18.80;99.90
1379;DHT22;683;48.738;9.226;2022-08-20T00:46:06;18.80;99.90
1379;DHT22;683;48.738;9.226;2022-08-20T00:48:36;18.70;99.90
1379;DHT22;683;48.738;9.226;2022-08-20T00:51:09;18.70;99.90
1379;DHT22;683;48.738;9.226;2022-08-20T00:53:38;18.80;99.90
1379;DHT22;683;48.738;9.226;2022-08-20T00:56:07;18.80;99.90
1379;DHT22;683;48.738;9.226;2022-08-20T00:58:36;18.80;99.90
1379;DHT22;683;48.738;9.226;2022-08-20T01:01:06;18.80;99.90
1379;DHT22;683;48.738;9.226;2022-08-20T01:03:34;18.80;99.90
1379;DHT22;683;48.738;9.226;2022-08-20T01:06:03;18.80;99.90
1379;DHT22;683;48.738;9.226;2022-08-20T01:08:32;18.90;99.90
1379;DHT22;683;48.738;9.226;2022-08-20T01:11:00;19.00;99.90
1379;DHT22;683;48.738;9.226;2022-08-20T01:13:36;19.00;99.90
1379;DHT22;683;48.738;9.226;2022-08-20T01:16:12;19.00;99.90
1379;DHT22;683;48.738;9.226;2022-08-20T01:18:41;19.00;99.90
1379;DHT22;683;48.738;9.226;2022-08-20T01:21:09;19.00;99.90
1379;DHT22;683;48.738;9.226;2022-08-20T01:23:46;19.10;99.90
1379;DHT22;683;48.738;9.226;2022-08-20T01:26:18;19.10;99.90
1379;DHT22;683;48.738;9.226;2022-08-20T01:28:51;19.10;99.90
1379;DHT22;683;48.738;9.226;2022-08-20T01:31:21;19.00;99.90
1379;DHT22;683;48.738;9.226;2022-08-20T01:33:51;19.00;99.90
1379;DHT22;683;48.738;9.226;2022-08-20T01:36:26;19.00;99.90
1379;DHT22;683;48.738;9.226;2022-08-20T01:38:55;18.90;99.90
1379;DHT22;683;48.738;9.226;2022-08-20T01:41:48;18.90;99.90
1379;DHT22;683;48.738;9.226;2022-08-20T01:44:19;18.90;99.90
1379;DHT22;683;48.738;9.226;2022-08-20T01:46:49;18.90;99.90
1379;DHT22;683;48.738;9.226;2022-08-20T01:49:20;19.00;99.90
1379;DHT22;683;48.738;9.226;2022-08-20T01:51:49;19.00;99.90
1379;DHT22;683;48.738;9.226;2022-08-20T01:54:17;18.90;99.90
1379;DHT22;683;48.738;9.226;2022-08-20T01:56:59;19.00;99.90
1379;DHT22;683;48.738;9.226;2022-08-20T01:59:29;19.00;99.90
1379;DHT22;683;48.738;9.226;2022-08-20T02:01:57;19.00;99.90
1379;DHT22;683;48.738;9.226;2022-08-20T02:04:25;19.00;99.90
1379;DHT22;683;48.738;9.226;2022-08-20T02:06:55;19.10;99.90
1379;DHT22;683;48.738;9.226;2022-08-20T02:09:24;19.10;99.90
1379;DHT22;683;48.738;9.226;2022-08-20T02:11:52;19.10;99.90
1379;DHT22;683;48.738;9.226;2022-08-20T02:14:21;19.10;99.90
1379;DHT22;683;48.738;9.226;2022-08-20T02:16:49;19.10;99.90
1379;DHT22;683;48.738;9.226;2022-08-20T02:19:20;19.10;99.90
1379;DHT22;683;48.738;9.226;2022-08-20T02:21:52;19.00;99.90
1379;DHT22;683;48.738;9.226;2022-08-20T02:24:22;19.00;99.90
1379;DHT22;683;48.738;9.226;2022-08-20T02:26:50;19.00;99.90
1379;DHT22;683;48.738;9.226;2022-08-20T02:29:18;19.00;99.90
1379;DHT22;683;48.738;9.226;2022-08-20T02:31:47;19.00;99.90
1379;DHT22;683;48.738;9.226;2022-08-20T02:34:15;19.00;99.90
1379;DHT22;683;48.738;9.226;2022-08-20T02:36:43;19.00;99.90
1379;DHT22;683;48.738;9.226;2022-08-20T02:39:15;19.00;99.90
1379;DHT22;683;48.738;9.226;2022-08-20T02:41:42;18.90;99.90
1379;DHT22;683;48.738;9.226;2022-08-20T02:44:10;18.80;99.90
1379;DHT22;683;48.738;9.226;2022-08-20T02:46:38;18.80;99.90
1379;DHT22;683;48.738;9.226;2022-08-20T02:49:08;18.80;99.90
1379;DHT22;683;48.738;9.226;2022-08-20T02:51:36;18.80;99.90
1379;DHT22;683;48.738;9.226;2022-08-20T02:54:04;18.90;99.90
1379;DHT22;683;48.738;9.226;2022-08-20T02:56:32;18.80;99.90
1379;DHT22;683;48.738;9.226;2022-08-20T02:59:00;18.80;99.90
1379;DHT22;683;48.738;9.226;2022-08-20T03:01:28;18.80;99.90
1379;DHT22;683;48.738;9.226;2022-08-20T03:03:56;18.80;99.90
1379;DHT22;683;48.738;9.226;2022-08-20T03:06:26;18.70;99.90
1379;DHT22;683;48.738;9.226;2022-08-20T03:08:54;18.70;99.90
1379;DHT22;683;48.738;9.226;2022-08-20T03:11:22;18.70;99.90
1379;DHT22;683;48.738;9.226;2022-08-20T03:13:50;18.60;99.90
1379;DHT22;683;48.738;9.226;2022-08-20T03:16:18;18.40;99.90
1379;DHT22;683;48.738;9.226;2022-08-20T03:18:47;18.30;99.90
1379;DHT22;683;48.738;9.226;2022-08-20T03:21:15;18.20;99.90
1379;DHT22;683;48.738;9.226;2022-08-20T03:23:44;18.10;99.90
1379;DHT22;683;48.738;9.226;2022-08-20T03:26:13;18.00;99.90
1379;DHT22;683;48.738;9.226;2022-08-20T03:28:42;17.90;99.90
1379;DHT22;683;48.738;9.226;2022-08-20T03:31:10;17.90;99.90
1379;DHT22;683;48.738;9.226;2022-08-20T03:33:37;17.80;99.90
1379;DHT22;683;48.738;9.226;2022-08-20T03:36:06;17.80;99.90
1379;DHT22;683;48.738;9.226;2022-08-20T03:38:34;17.70;99.90
1379;DHT22;683;48.738;9.226;2022-08-20T03:41:03;17.70;99.90
1379;DHT22;683;48.738;9.226;2022-08-20T03:43:32;17.60;99.90
1379;DHT22;683;48.738;9.226;2022-08-20T03:46:00;17.60;99.90
1379;DHT22;683;48.738;9.226;2022-08-20T03:48:28;17.50;99.90
1379;DHT22;683;48.738;9.226;2022-08-20T03:50:56;17.60;99.90
1379;DHT22;683;48.738;9.226;2022-08-20T03:53:26;17.60;99.90
1379;DHT22;683;48.738;9.226;2022-08-20T03:55:58;17.70;99.90
1379;DHT22;683;48.738;9.226;2022-08-20T03:58:28;17.70;99.90
1379;DHT22;683;48.738;9.226;2022-08-20T04:00:56;17.70;99.90
1379;DHT22;683;48.738;9.226;2022-08-20T04:03:24;17.70;99.90
1379;DHT22;683;48.738;9.226;2022-08-20T04:05:52;17.70;99.90
1379;DHT22;683;48.738;9.226;2022-08-20T04:08:22;17.70;99.90
1379;DHT22;683;48.738;9.226;2022-08-20T04:10:52;17.70;99.90
1379;DHT22;683;48.738;9.226;2022-08-20T04:13:23;17.70;99.90
1379;DHT22;683;48.738;9.226;2022-08-20T04:15:53;17.70;99.90
1379;DHT22;683;48.738;9.226;2022-08-20T04:18:23;17.70;99.90
1379;DHT22;683;48.738;9.226;2022-08-20T04:20:52;17.80;99.90
1379;DHT22;683;48.738;9.226;2022-08-20T04:23:21;17.90;99.90
1379;DHT22;683;48.738;9.226;2022-08-20T04:25:49;17.90;99.90
1379;DHT22;683;48.738;9.226;2022-08-20T04:28:19;17.90;99.90
1379;DHT22;683;48.738;9.226;2022-08-20T04:30:50;17.90;99.90
1379;DHT22;683;48.738;9.226;2022-08-20T04:33:20;18.00;99.90
1379;DHT22;683;48.738;9.226;2022-08-20T04:35:48;18.00;99.90
1379;DHT22;683;48.738;9.226;2022-08-20T04:38:18;18.00;99.90
1379;DHT22;683;48.738;9.226;2022-08-20T04:40:46;18.00;99.90
1379;DHT22;683;48.738;9.226;2022-08-20T04:43:19;18.00;99.90
1379;DHT22;683;48.738;9.226;2022-08-20T04:45:49;18.10;99.90
1379;DHT22;683;48.738;9.226;2022-08-20T04:48:19;18.10;99.90
1379;DHT22;683;48.738;9.226;2022-08-20T04:50:49;18.10;99.90
1379;DHT22;683;48.738;9.226;2022-08-20T04:53:21;18.10;99.90
1379;DHT22;683;48.738;9.226;2022-08-20T04:55:50;18.10;99.90
1379;DHT22;683;48.738;9.226;2022-08-20T04:58:20;18.10;99.90
1379;DHT22;683;48.738;9.226;2022-08-20T05:00:50;18.10;99.90
1379;DHT22;683;48.738;9.226;2022-08-20T05:03:19;18.10;99.90
1379;DHT22;683;48.738;9.226;2022-08-20T05:05:47;18.10;99.90
1379;DHT22;683;48.738;9.226;2022-08-20T05:08:16;18.10;99.90
1379;DHT22;683;48.738;9.226;2022-08-20T05:10:44;18.10;99.90
1379;DHT22;683;48.738;9.226;2022-08-20T05:13:12;18.10;99.90
1379;DHT22;683;48.738;9.226;2022-08-20T05:15:40;18.10;99.90
1379;DHT22;683;48.738;9.226;2022-08-20T05:18:11;18.10;99.90
1379;DHT22;683;48.738;9.226;2022-08-20T05:20:41;18.10;99.90
1379;DHT22;683;48.738;9.226;2022-08-20T05:23:10;18.10;99.90
1379;DHT22;683;48.738;9.226;2022-08-20T05:25:39;18.10;99.90
1379;DHT22;683;48.738;9.226;2022-08-20T05:28:10;18.20;99.90
1379;DHT22;683;48.738;9.226;2022-08-20T05:30:39;18.20;99.90
1379;DHT22;683;48.738;9.226;2022-08-20T05:33:09;18.20;99.90
1379;DHT22;683;48.738;9.226;2022-08-20T05:35:37;18.10;99.90
1379;DHT22;683;48.738;9.226;2022-08-20T05:38:10;18.10;99.90
1379;DHT22;683;48.738;9.226;2022-08-20T05:40:39;18.00;99.90
1379;DHT22;683;48.738;9.226;2022-08-20T05:43:08;17.90;99.90
1379;DHT22;683;48.738;9.226;2022-08-20T05:45:37;17.90;99.90
1379;DHT22;683;48.738;9.226;2022-08-20T05:48:06;17.90;99.90
1379;DHT22;683;48.738;9.226;2022-08-20T05:50:34;17.90;99.90
1379;DHT22;683;48.738;9.226;2022-08-20T05:53:02;18.00;99.90
1379;DHT22;683;48.738;9.226;2022-08-20T05:55:31;18.00;99.90
1379;DHT22;683;48.738;9.226;2022-08-20T05:58:01;18.20;99.90
1379;DHT22;683;48.738;9.226;2022-08-20T06:00:30;18.20;99.90
1379;DHT22;683;48.738;9.226;2022-08-20T06:02:59;18.30;99.90
1379;DHT22;683;48.738;9.226;2022-08-20T06:05:44;18.50;99.90
1379;DHT22;683;48.738;9.226;2022-08-20T06:08:13;18.60;99.90
1379;DHT22;683;48.738;9.226;2022-08-20T06:10:43;18.70;99.90
1379;DHT22;683;48.738;9.226;2022-08-20T06:13:11;18.90;99.90
1379;DHT22;683;48.738;9.226;2022-08-20T06:15:39;19.10;99.90
1379;DHT22;683;48.738;9.226;2022-08-20T06:18:08;19.40;99.90
1379;DHT22;683;48.738;9.226;2022-08-20T06:20:37;19.50;99.90
1379;DHT22;683;48.738;9.226;2022-08-20T06:23:05;19.70;99.90
1379;DHT22;683;48.738;9.226;2022-08-20T06:25:34;19.90;99.90
1379;DHT22;683;48.738;9.226;2022-08-20T06:28:04;20.10;99.90
1379;DHT22;683;48.738;9.226;2022-08-20T06:30:31;20.20;99.90
1379;DHT22;683;48.738;9.226;2022-08-20T06:32:59;20.30;99.90
1379;DHT22;683;48.738;9.226;2022-08-20T06:35:27;20.40;99.90
1379;DHT22;683;48.738;9.226;2022-08-20T06:37:55;20.40;99.90
1379;DHT22;683;48.738;9.226;2022-08-20T06:40:27;20.50;99.90
1379;DHT22;683;48.738;9.226;2022-08-20T06:42:56;20.40;99.90
1379;DHT22;683;48.738;9.226;2022-08-20T06:45:27;20.30;99.90
1379;DHT22;683;48.738;9.226;2022-08-20T06:47:58;20.30;99.90
1379;DHT22;683;48.738;9.226;2022-08-20T06:50:28;20.30;99.90
1379;DHT22;683;48.738;9.226;2022-08-20T06:52:56;20.20;99.90
1379;DHT22;683;48.738;9.226;2022-08-20T06:55:25;20.10;99.90
1379;DHT22;683;48.738;9.226;2022-08-20T06:57:57;20.20;99.90
1379;DHT22;683;48.738;9.226;2022-08-20T07:00:28;20.40;99.90
1379;DHT22;683;48.738;9.226;2022-08-20T07:02:56;20.60;99.90
1379;DHT22;683;48.738;9.226;2022-08-20T07:05:25;20.70;99.90
1379;DHT22;683;48.738;9.226;2022-08-20T07:07:53;20.90;99.90
1379;DHT22;683;48.738;9.226;2022-08-20T07:10:23;21.00;99.90
1379;DHT22;683;48.738;9.226;2022-08-20T07:12:51;21.10;99.90
1379;DHT22;683;48.738;9.226;2022-08-20T07:15:21;21.20;99.90
1379;DHT22;683;48.738;9.226;2022-08-20T07:17:53;21.20;99.90
1379;DHT22;683;48.738;9.226;2022-08-20T07:20:21;21.20;99.90
1379;DHT22;683;48.738;9.226;2022-08-20T07:22:49;21.30;99.90
1379;DHT22;683;48.738;9.226;2022-08-20T07:25:19;21.20;99.90
1379;DHT22;683;48.738;9.226;2022-08-20T07:27:49;21.30;99.90
1379;DHT22;683;48.738;9.226;2022-08-20T07:30:21;21.30;99.90
1379;DHT22;683;48.738;9.226;2022-08-20T07:33:16;21.20;99.90
1379;DHT22;683;48.738;9.226;2022-08-20T07:35:44;21.20;99.90
1379;DHT22;683;48.738;9.226;2022-08-20T07:38:16;21.10;99.90
1379;DHT22;683;48.738;9.226;2022-08-20T07:40:51;21.30;99.90
1379;DHT22;683;48.738;9.226;2022-08-20T07:43:21;21.50;99.90
1379;DHT22;683;48.738;9.226;2022-08-20T07:45:49;21.30;99.90
1379;DHT22;683;48.738;9.226;2022-08-20T07:48:23;21.30;99.90
1379;DHT22;683;48.738;9.226;2022-08-20T07:50:51;21.50;99.90
1379;DHT22;683;48.738;9.226;2022-08-20T07:53:19;21.80;99.90
1379;DHT22;683;48.738;9.226;2022-08-20T07:55:47;22.00;99.90
1379;DHT22;683;48.738;9.226;2022-08-20T07:58:17;22.20;99.90
1379;DHT22;683;48.738;9.226;2022-08-20T08:00:46;22.40;99.90
1379;DHT22;683;48.738;9.226;2022-08-20T08:03:14;22.70;99.90
1379;DHT22;683;48.738;9.226;2022-08-20T08:05:45;22.80;99.90
1379;DHT22;683;48.738;9.226;2022-08-20T08:08:18;22.60;99.90
1379;DHT22;683;48.738;9.226;2022-08-20T08:10:49;23.00;99.90
1379;DHT22;683;48.738;9.226;2022-08-20T08:13:29;23.30;99.90
1379;DHT22;683;48.738;9.226;2022-08-20T08:15:59;23.60;99.90
1379;DHT22;683;48.738;9.226;2022-08-20T08:18:34;23.70;99.80
1379;DHT22;683;48.738;9.226;2022-08-20T08:21:05;23.80;99.10
1379;DHT22;683;48.738;9.226;2022-08-20T08:23:33;23.50;98.90
1379;DHT22;683;48.738;9.226;2022-08-20T08:26:01;23.50;98.40
1379;DHT22;683;48.738;9.226;2022-08-20T08:28:29;23.30;99.10
1379;DHT22;683;48.738;9.226;2022-08-20T08:30:57;23.50;99.30
1379;DHT22;683;48.738;9.226;2022-08-20T08:33:27;23.70;97.80
1379;DHT22;683;48.738;9.226;2022-08-20T08:35:57;23.70;97.90
1379;DHT22;683;48.738;9.226;2022-08-20T08:38:29;23.70;97.40
1379;DHT22;683;48.738;9.226;2022-08-20T08:41:01;23.60;97.10
1379;DHT22;683;48.738;9.226;2022-08-20T08:43:30;23.30;98.30
1379;DHT22;683;48.738;9.226;2022-08-20T08:46:02;23.30;97.70
1379;DHT22;683;48.738;9.226;2022-08-20T08:48:34;23.50;97.60
1379;DHT22;683;48.738;9.226;2022-08-20T08:51:04;23.70;97.50
1379;DHT22;683;48.738;9.226;2022-08-20T08:53:40;24.10;98.30
1379;DHT22;683;48.738;9.226;2022-08-20T08:56:09;24.50;97.00
1379;DHT22;683;48.738;9.226;2022-08-20T08:58:40;24.90;96.10
1379;DHT22;683;48.738;9.226;2022-08-20T09:01:11;25.00;94.80
1379;DHT22;683;48.738;9.226;2022-08-20T09:03:40;25.20;95.20
1379;DHT22;683;48.738;9.226;2022-08-20T09:06:13;25.40;94.40
1379;DHT22;683;48.738;9.226;2022-08-20T09:08:46;25.30;94.20
1379;DHT22;683;48.738;9.226;2022-08-20T09:11:16;24.90;93.40
1379;DHT22;683;48.738;9.226;2022-08-20T09:13:45;24.20;95.40
1379;DHT22;683;48.738;9.226;2022-08-20T09:16:13;23.80;96.80
1379;DHT22;683;48.738;9.226;2022-08-20T09:18:41;23.50;97.30
1379;DHT22;683;48.738;9.226;2022-08-20T09:21:08;23.50;97.50
1379;DHT22;683;48.738;9.226;2022-08-20T09:23:36;23.50;97.70
1379;DHT22;683;48.738;9.226;2022-08-20T09:26:06;23.50;98.00
1379;DHT22;683;48.738;9.226;2022-08-20T09:28:34;23.70;97.70
1379;DHT22;683;48.738;9.226;2022-08-20T09:31:03;23.60;97.40
1379;DHT22;683;48.738;9.226;2022-08-20T09:33:30;23.30;97.50
1379;DHT22;683;48.738;9.226;2022-08-20T09:35:58;23.10;98.60
1379;DHT22;683;48.738;9.226;2022-08-20T09:38:26;23.00;99.70
1379;DHT22;683;48.738;9.226;2022-08-20T09:40:54;22.80;99.90
1379;DHT22;683;48.738;9.226;2022-08-20T09:43:23;22.90;99.90
1379;DHT22;683;48.738;9.226;2022-08-20T09:45:51;23.10;99.90
1379;DHT22;683;48.738;9.226;2022-08-20T09:48:18;23.20;99.90
1379;DHT22;683;48.738;9.226;2022-08-20T09:50:48;23.30;99.90
1379;DHT22;683;48.738;9.226;2022-08-20T09:53:16;23.30;99.90
1379;DHT22;683;48.738;9.226;2022-08-20T09:55:49;23.40;99.60
1379;DHT22;683;48.738;9.226;2022-08-20T09:58:20;23.50;99.60
1379;DHT22;683;48.738;9.226;2022-08-20T10:00:50;23.80;99.20
1379;DHT22;683;48.738;9.226;2022-08-20T10:03:18;24.10;97.70
1379;DHT22;683;48.738;9.226;2022-08-20T10:05:46;24.30;96.70
1379;DHT22;683;48.738;9.226;2022-08-20T10:08:14;24.30;97.00
1379;DHT22;683;48.738;9.226;2022-08-20T10:10:42;24.10;95.20
1379;DHT22;683;48.738;9.226;2022-08-20T10:13:09;23.90;94.80
1379;DHT22;683;48.738;9.226;2022-08-20T10:15:37;24.00;94.60
1379;DHT22;683;48.738;9.226;2022-08-20T10:21:14;24.10;93.70
1379;DHT22;683;48.738;9.226;2022-08-20T10:23:42;23.80;93.80
1379;DHT22;683;48.738;9.226;2022-08-20T10:26:11;23.80;94.00
1379;DHT22;683;48.738;9.226;2022-08-20T10:28:40;23.70;94.20
1379;DHT22;683;48.738;9.226;2022-08-20T10:31:08;23.60;94.30
1379;DHT22;683;48.738;9.226;2022-08-20T10:33:38;23.60;94.30
1379;DHT22;683;48.738;9.226;2022-08-20T10:36:07;24.00;94.70
1379;DHT22;683;48.738;9.226;2022-08-20T10:38:36;24.80;94.60
1379;DHT22;683;48.738;9.226;2022-08-20T10:41:04;25.20;93.50
1379;DHT22;683;48.738;9.226;2022-08-20T10:43:32;25.00;92.80
1379;DHT22;683;48.738;9.226;2022-08-20T10:46:00;24.20;93.40
1379;DHT22;683;48.738;9.226;2022-08-20T10:48:28;23.60;94.00
1379;DHT22;683;48.738;9.226;2022-08-20T10:50:57;23.50;94.30
1379;DHT22;683;48.738;9.226;2022-08-20T10:53:25;23.40;94.30
1379;DHT22;683;48.738;9.226;2022-08-20T10:55:53;23.20;94.50
1379;DHT22;683;48.738;9.226;2022-08-20T10:58:21;22.80;95.20
1379;DHT22;683;48.738;9.226;2022-08-20T11:00:49;22.70;95.10
1379;DHT22;683;48.738;9.226;2022-08-20T11:03:17;22.50;94.60
1379;DHT22;683;48.738;9.226;2022-08-20T11:05:46;22.40;95.60
1379;DHT22;683;48.738;9.226;2022-08-20T11:08:15;22.20;95.30
1379;DHT22;683;48.738;9.226;2022-08-20T11:10:43;22.30;95.70
1379;DHT22;683;48.738;9.226;2022-08-20T11:13:10;22.40;95.80
1379;DHT22;683;48.738;9.226;2022-08-20T11:15:41;22.40;95.70
1379;DHT22;683;48.738;9.226;2022-08-20T11:18:10;22.40;96.30
1379;DHT22;683;48.738;9.226;2022-08-20T11:20:39;22.60;96.40
1379;DHT22;683;48.738;9.226;2022-08-20T11:23:06;22.30;96.20
1379;DHT22;683;48.738;9.226;2022-08-20T11:25:35;22.40;96.20
1379;DHT22;683;48.738;9.226;2022-08-20T11:28:04;22.50;96.30
1379;DHT22;683;48.738;9.226;2022-08-20T11:30:34;22.80;95.90
1379;DHT22;683;48.738;9.226;2022-08-20T11:33:02;22.90;95.20
1379;DHT22;683;48.738;9.226;2022-08-20T11:35:32;23.00;94.90
1379;DHT22;683;48.738;9.226;2022-08-20T11:38:03;23.00;93.70
1379;DHT22;683;48.738;9.226;2022-08-20T11:40:31;23.20;93.70
1379;DHT22;683;48.738;9.226;2022-08-20T11:43:00;23.10;93.20
1379;DHT22;683;48.738;9.226;2022-08-20T11:45:28;23.00;93.60
1379;DHT22;683;48.738;9.226;2022-08-20T11:47:56;22.90;93.30
1379;DHT22;683;48.738;9.226;2022-08-20T11:50:24;22.90;93.80
1379;DHT22;683;48.738;9.226;2022-08-20T11:52:53;22.70;93.20
1379;DHT22;683;48.738;9.226;2022-08-20T11:55:23;22.80;93.00
1379;DHT22;683;48.738;9.226;2022-08-20T11:57:51;22.90;93.50
1379;DHT22;683;48.738;9.226;2022-08-20T12:00:21;23.10;93.10
1379;DHT22;683;48.738;9.226;2022-08-20T12:02:49;23.20;93.20
1379;DHT22;683;48.738;9.226;2022-08-20T12:05:18;23.10;93.20
1379;DHT22;683;48.738;9.226;2022-08-20T12:07:46;23.20;93.80
1379;DHT22;683;48.738;9.226;2022-08-20T12:10:14;23.00;94.10
1379;DHT22;683;48.738;9.226;2022-08-20T12:12:42;23.00;94.60
1379;DHT22;683;48.738;9.226;2022-08-20T12:15:10;23.20;94.70
1379;DHT22;683;48.738;9.226;2022-08-20T12:17:39;23.30;94.10
1379;DHT22;683;48.738;9.226;2022-08-20T12:20:09;23.50;94.00
1379;DHT22;683;48.738;9.226;2022-08-20T12:22:38;23.60;94.10
1379;DHT22;683;48.738;9.226;2022-08-20T12:25:07;23.70;93.00
1379;DHT22;683;48.738;9.226;2022-08-20T12:27:36;23.60;93.30
1379;DHT22;683;48.738;9.226;2022-08-20T12:30:07;23.50;92.50
1379;DHT22;683;48.738;9.226;2022-08-20T12:32:35;23.30;92.40
1379;DHT22;683;48.738;9.226;2022-08-20T12:35:05;23.20;92.60
1379;DHT22;683;48.738;9.226;2022-08-20T12:37:34;23.50;93.10
1379;DHT22;683;48.738;9.226;2022-08-20T12:40:05;23.80;92.40
1379;DHT22;683;48.738;9.226;2022-08-20T12:42:33;24.00;92.40
1379;DHT22;683;48.738;9.226;2022-08-20T12:45:03;24.30;92.30
1379;DHT22;683;48.738;9.226;2022-08-20T12:47:34;24.70;91.80
1379;DHT22;683;48.738;9.226;2022-08-20T12:50:07;25.20;92.00
1379;DHT22;683;48.738;9.226;2022-08-20T12:52:35;25.60;90.80
1379;DHT22;683;48.738;9.226;2022-08-20T12:55:05;25.80;89.20
1379;DHT22;683;48.738;9.226;2022-08-20T12:57:35;26.10;86.50
1379;DHT22;683;48.738;9.226;2022-08-20T13:00:08;26.10;86.30
1379;DHT22;683;48.738;9.226;2022-08-20T13:02:36;26.70;85.90
1379;DHT22;683;48.738;9.226;2022-08-20T13:05:08;27.40;84.10
1379;DHT22;683;48.738;9.226;2022-08-20T13:07:36;28.30;82.10
1379;DHT22;683;48.738;9.226;2022-08-20T13:10:06;28.60;79.80
1379;DHT22;683;48.738;9.226;2022-08-20T13:12:34;27.90;79.80
1379;DHT22;683;48.738;9.226;2022-08-20T13:15:03;27.20;79.60
1379;DHT22;683;48.738;9.226;2022-08-20T13:17:31;26.20;83.70
1379;DHT22;683;48.738;9.226;2022-08-20T13:19:59;23.00;99.90
1379;DHT22;683;48.738;9.226;2022-08-20T13:22:28;20.20;99.90
1379;DHT22;683;48.738;9.226;2022-08-20T13:24:55;18.90;99.90
1379;DHT22;683;48.738;9.226;2022-08-20T13:27:23;18.70;99.90
1379;DHT22;683;48.738;9.226;2022-08-20T13:29:52;18.90;99.90
1379;DHT22;683;48.738;9.226;2022-08-20T13:32:21;19.60;99.90
1379;DHT22;683;48.738;9.226;2022-08-20T13:34:49;20.00;99.90
1379;DHT22;683;48.738;9.226;2022-08-20T13:37:20;20.20;99.90
1379;DHT22;683;48.738;9.226;2022-08-20T13:39:50;19.80;99.90
1379;DHT22;683;48.738;9.226;2022-08-20T13:42:17;19.60;99.90
1379;DHT22;683;48.738;9.226;2022-08-20T13:44:45;19.70;99.90
1379;DHT22;683;48.738;9.226;2022-08-20T13:47:15;19.70;99.90
1379;DHT22;683;48.738;9.226;2022-08-20T13:49:43;19.70;99.90
1379;DHT22;683;48.738;9.226;2022-08-20T13:52:12;19.70;99.90
1379;DHT22;683;48.738;9.226;2022-08-20T13:54:40;19.60;99.90
1379;DHT22;683;48.738;9.226;2022-08-20T13:57:11;19.60;99.90
1379;DHT22;683;48.738;9.226;2022-08-20T13:59:41;19.70;99.90
1379;DHT22;683;48.738;9.226;2022-08-20T14:02:10;19.90;99.90
1379;DHT22;683;48.738;9.226;2022-08-20T14:04:38;20.50;99.90
1379;DHT22;683;48.738;9.226;2022-08-20T14:07:11;21.90;99.90
1379;DHT22;683;48.738;9.226;2022-08-20T14:09:41;24.40;99.90
1379;DHT22;683;48.738;9.226;2022-08-20T14:12:11;25.40;99.90
1379;DHT22;683;48.738;9.226;2022-08-20T14:14:40;24.40;99.90
1379;DHT22;683;48.738;9.226;2022-08-20T14:17:16;23.20;99.90
1379;DHT22;683;48.738;9.226;2022-08-20T14:19:44;22.60;99.90
1379;DHT22;683;48.738;9.226;2022-08-20T14:22:12;22.00;99.90
1379;DHT22;683;48.738;9.226;2022-08-20T14:24:42;21.80;99.90
1379;DHT22;683;48.738;9.226;2022-08-20T14:27:13;21.40;99.90
1379;DHT22;683;48.738;9.226;2022-08-20T14:29:43;21.30;99.90
1379;DHT22;683;48.738;9.226;2022-08-20T14:32:11;21.50;99.90
1379;DHT22;683;48.738;9.226;2022-08-20T14:34:39;21.50;99.90
1379;DHT22;683;48.738;9.226;2022-08-20T14:37:12;23.10;99.90
1379;DHT22;683;48.738;9.226;2022-08-20T14:39:40;25.30;99.90
1379;DHT22;683;48.738;9.226;2022-08-20T14:42:08;26.90;99.90
1379;DHT22;683;48.738;9.226;2022-08-20T14:44:38;26.00;99.90
1379;DHT22;683;48.738;9.226;2022-08-20T14:47:11;26.00;99.90
1379;DHT22;683;48.738;9.226;2022-08-20T14:49:40;27.50;99.90
1379;DHT22;683;48.738;9.226;2022-08-20T14:52:08;28.40;99.90
1379;DHT22;683;48.738;9.226;2022-08-20T14:54:36;27.90;99.90
1379;DHT22;683;48.738;9.226;2022-08-20T14:57:04;27.80;99.90
1379;DHT22;683;48.738;9.226;2022-08-20T14:59:32;28.60;99.90
1379;DHT22;683;48.738;9.226;2022-08-20T15:02:01;28.20;99.90
1379;DHT22;683;48.738;9.226;2022-08-20T15:04:29;26.80;99.90
1379;DHT22;683;48.738;9.226;2022-08-20T15:06:57;25.70;99.90
1379;DHT22;683;48.738;9.226;2022-08-20T15:09:27;26.00;99.90
1379;DHT22;683;48.738;9.226;2022-08-20T15:11:56;27.70;99.90
1379;DHT22;683;48.738;9.226;2022-08-20T15:14:24;29.60;99.90
1379;DHT22;683;48.738;9.226;2022-08-20T15:16:52;31.20;96.50
1379;DHT22;683;48.738;9.226;2022-08-20T15:19:21;32.10;93.70
1379;DHT22;683;48.738;9.226;2022-08-20T15:21:49;32.90;90.20
1379;DHT22;683;48.738;9.226;2022-08-20T15:24:17;34.00;88.20
1379;DHT22;683;48.738;9.226;2022-08-20T15:26:44;35.40;79.00
1379;DHT22;683;48.738;9.226;2022-08-20T15:29:12;35.80;72.10
1379;DHT22;683;48.738;9.226;2022-08-20T15:31:40;36.60;67.20
1379;DHT22;683;48.738;9.226;2022-08-20T15:34:08;36.80;64.90
1379;DHT22;683;48.738;9.226;2022-08-20T15:36:37;37.30;60.80
1379;DHT22;683;48.738;9.226;2022-08-20T15:39:05;37.20;59.20
1379;DHT22;683;48.738;9.226;2022-08-20T15:41:33;37.50;59.30
1379;DHT22;683;48.738;9.226;2022-08-20T15:44:00;37.80;56.70
1379;DHT22;683;48.738;9.226;2022-08-20T15:46:28;37.70;57.10
1379;DHT22;683;48.738;9.226;2022-08-20T15:48:56;38.20;56.00
1379;DHT22;683;48.738;9.226;2022-08-20T15:51:27;38.50;54.10
1379;DHT22;683;48.738;9.226;2022-08-20T15:54:01;38.90;53.00
1379;DHT22;683;48.738;9.226;2022-08-20T15:56:56;38.80;52.90
1379;DHT22;683;48.738;9.226;2022-08-20T15:59:57;38.70;51.40
1379;DHT22;683;48.738;9.226;2022-08-20T16:02:57;37.30;53.50
1379;DHT22;683;48.738;9.226;2022-08-20T16:05:40;37.20;54.20
1379;DHT22;683;48.738;9.226;2022-08-20T16:11:06;35.60;55.30
1379;DHT22;683;48.738;9.226;2022-08-20T16:13:40;35.90;56.40
1379;DHT22;683;48.738;9.226;2022-08-20T16:16:21;37.30;54.20
1379;DHT22;683;48.738;9.226;2022-08-20T16:18:52;37.90;53.00
1379;DHT22;683;48.738;9.226;2022-08-20T16:21:26;37.90;51.80
1379;DHT22;683;48.738;9.226;2022-08-20T16:23:55;38.00;51.10
1379;DHT22;683;48.738;9.226;2022-08-20T16:26:53;37.40;51.50
1379;DHT22;683;48.738;9.226;2022-08-20T16:29:36;36.10;53.20
1379;DHT22;683;48.738;9.226;2022-08-20T16:32:11;33.40;57.50
1379;DHT22;683;48.738;9.226;2022-08-20T16:34:43;31.30;62.70
1379;DHT22;683;48.738;9.226;2022-08-20T16:37:20;30.60;66.70
1379;DHT22;683;48.738;9.226;2022-08-20T16:39:55;31.00;66.70